Time,TemperatureF,DewpointF,PressureIn,WindDirection,WindDirectionDegrees,WindSpeedMPH,WindSpeedGustMPH,Humidity,HourlyPrecipIn,Conditions,Clouds,dailyrainin,SoftwareType,DateUTC
2013-09-08 00:00:00,64.7,55.9,29.79,SW,225,0.0,2.0,73,0.00,,---,0.00,VWS V14.00,2013-09-08 04:00:00,
2013-09-08 00:15:00,64.7,55.5,29.78,SW,225,0.0,3.0,72,0.00,,---,0.00,VWS V14.00,2013-09-08 04:15:00,
2013-09-08 00:30:00,64.7,55.9,29.78,SW,225,0.0,4.0,73,0.00,,---,0.00,VWS V14.00,2013-09-08 04:30:00,
2013-09-08 00:45:00,64.8,55.6,29.78,SSW,202,0.0,3.0,72,0.00,,---,0.00,VWS V14.00,2013-09-08 04:45:00,
2013-09-08 01:00:00,64.7,55.9,29.78,SSW,202,0.0,1.0,73,0.00,,---,0.00,VWS V14.00,2013-09-08 05:00:00,
2013-09-08 01:15:00,64.5,56.0,29.78,SSW,202,0.0,2.0,74,0.00,,---,0.00,VWS V14.00,2013-09-08 05:15:00,
2013-09-08 01:30:00,63.9,56.6,29.78,SSW,202,0.0,1.0,77,0.00,,---,0.00,VWS V14.00,2013-09-08 05:30:00,
2013-09-08 01:45:00,63.2,56.9,29.78,SSW,202,0.0,1.0,80,0.00,,---,0.01,VWS V14.00,2013-09-08 05:45:00,
2013-09-08 02:00:00,62.4,57.5,29.78,SSW,202,0.0,2.0,84,0.08,,---,0.03,VWS V14.00,2013-09-08 06:00:00,
2013-09-08 02:15:00,61.8,57.9,29.77,SSW,202,0.0,1.0,87,0.19,,---,0.06,VWS V14.00,2013-09-08 06:15:00,
2013-09-08 02:30:00,61.2,57.9,29.76,SSW,202,0.0,1.0,89,0.00,,---,0.06,VWS V14.00,2013-09-08 06:30:00,
2013-09-08 02:45:00,61.0,58.0,29.75,SSW,202,0.0,3.0,90,0.00,,---,0.07,VWS V14.00,2013-09-08 06:45:00,
2013-09-08 03:00:00,60.9,58.3,29.74,SSW,202,0.0,1.0,91,0.00,,---,0.07,VWS V14.00,2013-09-08 07:00:00,
2013-09-08 03:15:00,60.5,58.2,29.73,SW,225,0.0,3.0,92,0.00,,---,0.07,VWS V14.00,2013-09-08 07:15:00,
2013-09-08 03:30:00,60.4,58.1,29.72,SW,225,0.0,3.0,92,0.00,,---,0.07,VWS V14.00,2013-09-08 07:30:00,
2013-09-08 03:45:00,60.2,57.9,29.73,SW,225,0.0,0.0,92,0.00,,---,0.07,VWS V14.00,2013-09-08 07:45:00,
2013-09-08 04:00:00,60.2,57.9,29.72,SW,225,0.0,1.0,92,0.00,,---,0.07,VWS V14.00,2013-09-08 08:00:00,
2013-09-08 04:15:00,60.1,57.8,29.72,SW,225,0.0,1.0,92,0.00,,---,0.07,VWS V14.00,2013-09-08 08:15:00,
2013-09-08 04:30:00,59.8,57.5,29.72,SW,225,0.0,2.0,92,0.00,,---,0.07,VWS V14.00,2013-09-08 08:30:00,
2013-09-08 04:45:00,59.8,57.5,29.72,SW,225,0.0,2.0,92,0.00,,---,0.07,VWS V14.00,2013-09-08 08:45:00,
2013-09-08 05:00:00,59.8,57.8,29.71,SW,225,0.0,3.0,93,0.00,,---,0.07,VWS V14.00,2013-09-08 09:00:00,
2013-09-08 05:15:00,59.9,57.9,29.71,SW,225,0.0,1.0,93,0.00,,---,0.07,VWS V14.00,2013-09-08 09:15:00,
2013-09-08 05:30:00,59.9,57.9,29.70,SW,225,0.0,1.0,93,0.00,,---,0.07,VWS V14.00,2013-09-08 09:30:00,
2013-09-08 05:45:00,59.8,57.8,29.70,SW,225,0.0,1.0,93,0.00,,---,0.07,VWS V14.00,2013-09-08 09:45:00,
2013-09-08 06:00:00,59.6,57.6,29.69,SW,225,0.0,1.0,93,0.00,,---,0.07,VWS V14.00,2013-09-08 10:00:00,
2013-09-08 06:15:00,59.5,57.5,29.70,SW,225,0.0,1.0,93,0.00,,---,0.07,VWS V14.00,2013-09-08 10:15:00,
2013-09-08 06:30:00,59.5,57.5,29.70,SW,225,0.0,1.0,93,0.00,,---,0.07,VWS V14.00,2013-09-08 10:30:00,
2013-09-08 06:45:00,59.5,57.5,29.70,SSW,202,0.0,5.0,93,0.00,,---,0.07,VWS V14.00,2013-09-08 10:45:00,
2013-09-08 07:00:00,59.6,57.6,29.69,SSW,202,0.0,3.0,93,0.00,,---,0.07,VWS V14.00,2013-09-08 11:00:00,
2013-09-08 07:15:00,59.6,57.6,29.70,SSW,202,0.0,2.0,93,0.00,,---,0.07,VWS V14.00,2013-09-08 11:15:00,
2013-09-08 07:30:00,59.6,57.6,29.70,SSW,202,0.0,1.0,93,0.00,,---,0.07,VWS V14.00,2013-09-08 11:30:00,
2013-09-08 07:45:00,60.1,57.8,29.70,SSW,202,0.0,3.0,92,0.00,,---,0.07,VWS V14.00,2013-09-08 11:45:00,
2013-09-08 08:00:00,60.4,58.1,29.69,SSW,202,0.0,1.0,92,0.00,,---,0.07,VWS V14.00,2013-09-08 12:00:00,
2013-09-08 08:15:00,61.0,58.0,29.69,SSW,202,0.0,5.0,90,0.00,,---,0.07,VWS V14.00,2013-09-08 12:15:00,
2013-09-08 08:30:00,61.6,58.0,29.69,SW,225,0.0,5.0,88,0.00,,---,0.07,VWS V14.00,2013-09-08 12:30:00,
2013-09-08 08:45:00,62.7,58.1,29.69,SW,225,0.0,4.0,85,0.00,,---,0.07,VWS V14.00,2013-09-08 12:45:00,
2013-09-08 09:00:00,63.7,58.5,29.69,SW,225,0.0,3.0,83,0.00,,---,0.07,VWS V14.00,2013-09-08 13:00:00,
2013-09-08 09:15:00,64.8,58.5,29.69,WSW,248,0.0,2.0,80,0.00,,---,0.07,VWS V14.00,2013-09-08 13:15:00,
2013-09-08 09:30:00,66.1,58.7,29.68,West,270,0.0,4.0,77,0.00,,---,0.07,VWS V14.00,2013-09-08 13:30:00,
2013-09-08 09:45:00,67.8,59.2,29.68,WNW,292,0.0,4.0,74,0.00,,---,0.07,VWS V14.00,2013-09-08 13:45:00,
2013-09-08 10:00:00,69.1,58.9,29.68,NW,315,1.0,3.0,70,0.00,,---,0.07,VWS V14.00,2013-09-08 14:00:00,
2013-09-08 10:15:00,69.8,57.9,29.68,NW,315,1.0,6.0,66,0.00,,---,0.07,VWS V14.00,2013-09-08 14:15:00,
2013-09-08 10:30:00,70.8,58.5,29.69,NW,315,1.0,6.0,65,0.00,,---,0.07,VWS V14.00,2013-09-08 14:30:00,
2013-09-08 10:45:00,70.6,57.8,29.69,NW,315,1.0,11.0,64,0.00,,---,0.07,VWS V14.00,2013-09-08 14:45:00,
2013-09-08 11:00:00,71.5,58.3,29.69,NNW,338,1.0,6.0,63,0.00,,---,0.07,VWS V14.00,2013-09-08 15:00:00,
2013-09-08 11:15:00,71.6,57.5,29.70,NNW,338,1.0,7.0,61,0.00,,---,0.07,VWS V14.00,2013-09-08 15:15:00,
2013-09-08 11:30:00,72.1,57.9,29.69,NNW,338,1.0,9.0,61,0.00,,---,0.07,VWS V14.00,2013-09-08 15:30:00,
2013-09-08 11:45:00,72.1,57.5,29.69,NNW,338,1.0,5.0,60,0.00,,---,0.07,VWS V14.00,2013-09-08 15:45:00,
2013-09-08 12:00:00,73.0,57.8,29.70,NW,315,0.0,4.0,59,0.00,,---,0.07,VWS V14.00,2013-09-08 16:00:00,
2013-09-08 12:15:00,73.2,58.5,29.70,NNW,338,1.0,6.0,60,0.00,,---,0.07,VWS V14.00,2013-09-08 16:15:00,
2013-09-08 12:30:00,71.5,56.9,29.70,NNW,338,2.0,7.0,60,0.00,,---,0.07,VWS V14.00,2013-09-08 16:30:00,
2013-09-08 12:45:00,71.3,55.3,29.72,North,0,2.0,8.0,57,0.00,,---,0.07,VWS V14.00,2013-09-08 16:45:00,
2013-09-08 13:00:00,71.1,54.6,29.72,North,0,2.0,7.0,56,0.00,,---,0.07,VWS V14.00,2013-09-08 17:00:00,
2013-09-08 13:15:00,72.0,54.0,29.73,NNW,338,2.0,10.0,53,0.00,,---,0.07,VWS V14.00,2013-09-08 17:15:00,
2013-09-08 13:30:00,72.1,52.5,29.73,NNW,338,2.0,10.0,50,0.00,,---,0.07,VWS V14.00,2013-09-08 17:30:00,
2013-09-08 13:45:00,71.8,51.1,29.74,NNW,338,2.0,9.0,48,0.00,,---,0.07,VWS V14.00,2013-09-08 17:45:00,
2013-09-08 14:00:00,71.1,47.5,29.75,North,0,2.0,10.0,43,0.00,,---,0.07,VWS V14.00,2013-09-08 18:00:00,
2013-09-08 14:15:00,71.3,44.4,29.75,NW,315,2.0,7.0,38,0.00,,---,0.07,VWS V14.00,2013-09-08 18:15:00,
2013-09-08 14:30:00,72.0,43.6,29.75,NW,315,2.0,9.0,36,0.00,,---,0.07,VWS V14.00,2013-09-08 18:30:00,
2013-09-08 14:45:00,71.8,43.4,29.76,NW,315,2.0,12.0,36,0.00,,---,0.07,VWS V14.00,2013-09-08 18:45:00,
2013-09-08 15:00:00,71.8,41.2,29.76,East,90,2.0,10.0,33,0.00,,---,0.07,VWS V14.00,2013-09-08 19:00:00,
2013-09-08 15:15:00,72.0,42.1,29.77,NNW,338,2.0,7.0,34,0.00,,---,0.07,VWS V14.00,2013-09-08 19:15:00,
2013-09-08 15:30:00,71.6,40.2,29.77,NNW,338,2.0,9.0,32,0.00,,---,0.07,VWS V14.00,2013-09-08 19:30:00,
2013-09-08 15:45:00,70.8,41.1,29.78,NNW,338,2.0,11.0,34,0.00,,---,0.07,VWS V14.00,2013-09-08 19:45:00,
2013-09-08 16:00:00,71.6,44.0,29.79,NNW,338,1.0,5.0,37,0.00,,---,0.07,VWS V14.00,2013-09-08 20:00:00,
2013-09-08 16:15:00,70.9,40.4,29.80,NNW,338,1.0,10.0,33,0.00,,---,0.07,VWS V14.00,2013-09-08 20:15:00,
2013-09-08 16:30:00,68.9,37.8,29.81,NNW,338,2.0,12.0,32,0.00,,---,0.07,VWS V14.00,2013-09-08 20:30:00,
2013-09-08 16:45:00,68.3,38.1,29.81,NW,315,2.0,9.0,33,0.00,,---,0.07,VWS V14.00,2013-09-08 20:45:00,
2013-09-08 17:00:00,67.6,39.0,29.82,NNW,338,2.0,10.0,35,0.00,,---,0.07,VWS V14.00,2013-09-08 21:00:00,
2013-09-08 17:15:00,67.1,39.3,29.83,NNW,338,2.0,7.0,36,0.00,,---,0.07,VWS V14.00,2013-09-08 21:15:00,
2013-09-08 17:30:00,67.1,39.3,29.84,North,0,1.0,10.0,36,0.00,,---,0.07,VWS V14.00,2013-09-08 21:30:00,
2013-09-08 17:45:00,66.0,39.0,29.85,NNW,338,1.0,7.0,37,0.00,,---,0.07,VWS V14.00,2013-09-08 21:45:00,
2013-09-08 18:00:00,65.3,39.1,29.86,NW,315,2.0,8.0,38,0.00,,---,0.07,VWS V14.00,2013-09-08 22:00:00,
2013-09-08 18:15:00,64.5,39.7,29.86,NW,315,1.0,5.0,40,0.00,,---,0.07,VWS V14.00,2013-09-08 22:15:00,
2013-09-08 18:30:00,63.7,39.6,29.87,NNW,338,1.0,5.0,41,0.00,,---,0.07,VWS V14.00,2013-09-08 22:30:00,
2013-09-08 18:45:00,62.7,39.9,29.88,NW,315,0.0,3.0,43,0.00,,---,0.07,VWS V14.00,2013-09-08 22:45:00,
2013-09-08 19:00:00,61.6,38.9,29.89,NNW,338,0.0,3.0,43,0.00,,---,0.07,VWS V14.00,2013-09-08 23:00:00,
2013-09-08 19:15:00,60.9,38.9,29.89,North,0,0.0,4.0,44,0.00,,---,0.07,VWS V14.00,2013-09-08 23:15:00,
2013-09-08 19:30:00,60.4,37.8,29.91,NW,315,0.0,4.0,43,0.00,,---,0.07,VWS V14.00,2013-09-08 23:30:00,
2013-09-08 19:45:00,59.6,38.8,29.92,SSE,158,0.0,1.0,46,0.00,,---,0.07,VWS V14.00,2013-09-08 23:45:00,
2013-09-08 20:00:00,59.2,39.0,29.93,SSE,158,0.0,2.0,47,0.00,,---,0.07,VWS V14.00,2013-09-09 00:00:00,
2013-09-08 20:15:00,58.6,38.5,29.94,ENE,68,0.0,1.0,47,0.00,,---,0.07,VWS V14.00,2013-09-09 00:15:00,
2013-09-08 20:30:00,57.6,39.1,29.95,ENE,68,0.0,1.0,50,0.00,,---,0.07,VWS V14.00,2013-09-09 00:30:00,
2013-09-08 20:45:00,57.0,39.6,29.97,ENE,68,0.0,0.0,52,0.00,,---,0.07,VWS V14.00,2013-09-09 00:45:00,
2013-09-08 21:00:00,56.5,40.1,29.97,ENE,68,0.0,0.0,54,0.00,,---,0.07,VWS V14.00,2013-09-09 01:00:00,
2013-09-08 21:15:00,55.1,40.6,29.98,ENE,68,0.0,1.0,58,0.00,,---,0.07,VWS V14.00,2013-09-09 01:15:00,
2013-09-08 21:30:00,54.8,39.4,29.99,ENE,68,0.0,1.0,56,0.00,,---,0.07,VWS V14.00,2013-09-09 01:30:00,
2013-09-08 21:45:00,55.4,39.5,29.99,NE,45,0.0,1.0,55,0.00,,---,0.07,VWS V14.00,2013-09-09 01:45:00,
2013-09-08 22:00:00,55.7,39.3,30.00,NNW,338,0.0,3.0,54,0.00,,---,0.07,VWS V14.00,2013-09-09 02:00:00,
2013-09-08 22:15:00,55.1,40.2,30.00,NNW,338,0.0,1.0,57,0.00,,---,0.07,VWS V14.00,2013-09-09 02:15:00,
2013-09-08 22:30:00,54.1,40.1,30.01,NNW,338,0.0,0.0,59,0.00,,---,0.07,VWS V14.00,2013-09-09 02:30:00,
2013-09-08 22:45:00,53.1,40.8,30.01,NNW,338,0.0,0.0,63,0.00,,---,0.07,VWS V14.00,2013-09-09 02:45:00,
2013-09-08 23:00:00,52.2,40.8,30.01,NNW,338,0.0,0.0,65,0.00,,---,0.07,VWS V14.00,2013-09-09 03:00:00,
2013-09-08 23:15:00,51.3,41.1,30.02,NNW,338,0.0,0.0,68,0.00,,---,0.07,VWS V14.00,2013-09-09 03:15:00,
2013-09-08 23:30:00,50.5,41.5,30.03,NNW,338,0.0,1.0,71,0.00,,---,0.07,VWS V14.00,2013-09-09 03:30:00,
2013-09-08 23:45:00,49.8,41.2,30.03,NNW,338,0.0,0.0,72,0.00,,---,0.07,VWS V14.00,2013-09-09 03:45:00,